Time;durP1;ratioP1;P1;durP2;ratioP2;P2;SDS_P1;SDS_P2;PMS_P1;PMS_P2;Temp;Humidity;BMP_temperature;BMP_pressure;BME280_temperature;BME280_humidity;BME280_pressure;Samples;Min_cycle;Max_cycle;Signal;HPM_P1;HPM_P2
2022/04/03 00:01:13;;;;;;;8.83;7.77;;;4.80;99.90;;;;;;5045561;28;20886;-73
2022/04/03 00:03:39;;;;;;;12.20;8.97;;;4.80;99.90;;;;;;5058989;28;20439;-74
2022/04/03 00:06:04;;;;;;;9.73;7.60;;;4.80;99.90;;;;;;5044089;28;20657;-74
2022/04/03 00:08:31;;;;;;;11.33;7.87;;;4.90;99.90;;;;;;5044347;28;20862;-73
2022/04/03 00:10:57;;;;;;;10.97;8.37;;;4.80;99.90;;;;;;5043315;28;20611;-74
2022/04/03 00:13:26;;;;;;;10.73;7.67;;;4.70;99.90;;;;;;5041402;28;20435;-74
2022/04/03 00:15:52;;;;;;;7.97;7.17;;;4.70;99.90;;;;;;5040591;28;20466;-74
2022/04/03 00:18:18;;;;;;;10.00;8.80;;;4.50;99.90;;;;;;5040183;28;20445;-73
2022/04/03 00:20:44;;;;;;;10.33;8.07;;;4.40;99.90;;;;;;5046223;28;20422;-73
2022/04/03 00:23:10;;;;;;;10.43;7.97;;;4.40;99.90;;;;;;5047555;28;20180;-73
2022/04/03 00:25:37;;;;;;;11.60;8.63;;;4.50;99.90;;;;;;5043074;28;20458;-73
2022/04/03 00:28:06;;;;;;;9.07;8.00;;;4.50;99.90;;;;;;5042442;28;20199;-72
2022/04/03 00:30:32;;;;;;;14.37;8.27;;;4.40;99.90;;;;;;5043391;28;20498;-73
2022/04/03 00:32:58;;;;;;;11.13;8.17;;;4.50;99.90;;;;;;5043060;28;20434;-74
2022/04/03 00:35:23;;;;;;;9.80;7.57;;;4.70;99.90;;;;;;5043187;28;20945;-73
2022/04/03 00:37:49;;;;;;;11.23;8.20;;;4.80;99.90;;;;;;5044050;28;20461;-73
2022/04/03 00:40:15;;;;;;;8.87;7.43;;;4.60;99.90;;;;;;5045540;28;20445;-73
2022/04/03 00:42:41;;;;;;;9.10;7.80;;;4.70;99.90;;;;;;5043303;28;20241;-73
2022/04/03 00:45:10;;;;;;;10.80;9.20;;;4.80;99.90;;;;;;5042763;28;20981;-73
2022/04/03 00:47:36;;;;;;;12.40;8.70;;;4.90;99.90;;;;;;5041967;28;20218;-74
2022/04/03 00:50:02;;;;;;;10.70;7.53;;;4.70;99.90;;;;;;5043531;28;20433;-73
2022/04/03 00:52:28;;;;;;;9.57;8.03;;;4.80;99.90;;;;;;5039167;28;20194;-72
2022/04/03 00:54:53;;;;;;;13.03;9.47;;;4.80;99.90;;;;;;5043941;28;20797;-72
2022/04/03 00:57:22;;;;;;;9.77;8.63;;;4.80;99.90;;;;;;5043399;28;20228;-72
2022/04/03 00:59:49;;;;;;;11.37;8.50;;;4.90;99.90;;;;;;5039384;28;20184;-72
2022/04/03 01:02:15;;;;;;;9.93;7.80;;;5.00;99.90;;;;;;5042886;28;20473;-72
2022/04/03 01:04:43;;;;;;;10.93;8.67;;;4.90;99.90;;;;;;5041533;28;21225;-72
2022/04/03 01:07:08;;;;;;;12.03;8.00;;;4.90;99.90;;;;;;5040074;28;20224;-72
2022/04/03 01:09:35;;;;;;;9.87;8.60;;;4.80;99.90;;;;;;5041813;28;20494;-71
2022/04/03 01:12:00;;;;;;;10.33;8.43;;;4.90;99.90;;;;;;5042561;28;20215;-71
2022/04/03 01:14:33;;;;;;;11.40;7.97;;;4.90;99.90;;;;;;5038057;28;20462;-72
2022/04/03 01:17:02;;;;;;;12.03;8.70;;;4.90;99.90;;;;;;5042921;28;20262;-72
2022/04/03 01:19:28;;;;;;;11.27;8.97;;;4.70;99.90;;;;;;5058627;28;20442;-74
2022/04/03 01:21:54;;;;;;;11.10;8.63;;;4.60;99.90;;;;;;5053206;28;20446;-73
2022/04/03 01:24:21;;;;;;;17.90;8.13;;;4.70;99.90;;;;;;5042833;28;20191;-73
2022/04/03 01:26:51;;;;;;;11.20;7.60;;;4.70;99.90;;;;;;5044448;28;20466;-74
2022/04/03 01:29:17;;;;;;;12.03;7.83;;;4.80;99.90;;;;;;5042327;28;20439;-73
2022/04/03 01:31:45;;;;;;;12.13;9.27;;;4.80;99.90;;;;;;5040431;28;20496;-74
2022/04/03 01:34:11;;;;;;;9.10;8.07;;;4.80;99.90;;;;;;5040751;28;20507;-73
2022/04/03 01:36:37;;;;;;;8.40;7.23;;;4.80;99.90;;;;;;5054627;28;20458;-73
2022/04/03 01:39:03;;;;;;;11.03;8.50;;;4.70;99.90;;;;;;5039479;28;20920;-72
2022/04/03 01:41:31;;;;;;;11.23;7.30;;;4.80;99.90;;;;;;5044062;28;20396;-72
2022/04/03 01:43:57;;;;;;;8.83;7.87;;;4.80;99.90;;;;;;5057601;28;20978;-72
2022/04/03 01:46:23;;;;;;;9.83;7.77;;;4.70;99.90;;;;;;5040481;28;20462;-73
2022/04/03 01:48:48;;;;;;;12.03;8.47;;;4.70;99.90;;;;;;5042682;28;20180;-73
2022/04/03 01:51:14;;;;;;;10.13;7.97;;;4.80;99.90;;;;;;5041740;28;20314;-72
2022/04/03 01:53:40;;;;;;;12.40;8.27;;;4.80;99.90;;;;;;5041204;28;20187;-73
2022/04/03 01:56:09;;;;;;;11.63;8.07;;;4.80;99.90;;;;;;5039585;28;20215;-72
2022/04/03 01:58:35;;;;;;;9.70;6.90;;;4.80;99.90;;;;;;5042437;28;20194;-71
2022/04/03 02:01:01;;;;;;;10.00;7.60;;;4.90;99.90;;;;;;5039581;28;20947;-71
2022/04/03 02:03:28;;;;;;;9.13;7.70;;;4.80;99.90;;;;;;5038536;28;20200;-71
2022/04/03 02:05:54;;;;;;;11.10;8.90;;;4.80;99.90;;;;;;5039359;28;20465;-71
2022/04/03 02:08:20;;;;;;;10.70;7.87;;;4.80;99.90;;;;;;5042112;28;20473;-71
2022/04/03 02:10:48;;;;;;;10.53;8.20;;;4.80;99.90;;;;;;5040503;28;20443;-71
2022/04/03 02:13:14;;;;;;;9.33;7.80;;;5.00;99.90;;;;;;5040126;28;20188;-72
2022/04/03 02:15:40;;;;;;;8.87;7.97;;;4.90;99.90;;;;;;5038149;28;20465;-71
2022/04/03 02:18:09;;;;;;;8.53;7.63;;;4.90;99.90;;;;;;5044366;28;20192;-69
2022/04/03 02:20:35;;;;;;;10.17;6.50;;;4.90;99.90;;;;;;5043865;28;20183;-71
2022/04/03 02:23:03;;;;;;;11.47;6.90;;;4.80;99.90;;;;;;5061561;28;20474;-73
2022/04/03 02:25:32;;;;;;;8.33;7.43;;;4.80;99.90;;;;;;5043610;28;20571;-74
2022/04/03 02:28:01;;;;;;;9.97;8.70;;;4.80;99.90;;;;;;5043463;28;21729;-70
2022/04/03 02:30:27;;;;;;;8.77;7.43;;;4.90;99.90;;;;;;5043602;28;20462;-72
2022/04/03 02:32:53;;;;;;;10.73;7.50;;;5.00;99.90;;;;;;5044171;28;20470;-73
2022/04/03 02:35:18;;;;;;;8.73;7.00;;;5.00;99.90;;;;;;5045658;28;20497;-73
2022/04/03 02:37:44;;;;;;;11.40;7.67;;;5.00;99.90;;;;;;5046068;28;20188;-71
2022/04/03 02:40:13;;;;;;;11.17;8.17;;;4.90;99.90;;;;;;5044515;28;20362;-73
2022/04/03 02:42:39;;;;;;;8.40;6.87;;;4.90;99.90;;;;;;5046314;28;20285;-74
2022/04/03 02:45:06;;;;;;;10.70;7.80;;;4.80;99.90;;;;;;5045345;28;20614;-74
2022/04/03 02:47:33;;;;;;;12.23;8.40;;;4.90;99.90;;;;;;5046328;28;21005;-74
2022/04/03 02:49:58;;;;;;;9.40;7.63;;;4.90;99.90;;;;;;5044999;28;20448;-71
2022/04/03 02:52:24;;;;;;;10.00;7.50;;;4.80;99.90;;;;;;5045371;28;20430;-74
2022/04/03 02:54:50;;;;;;;9.20;7.03;;;4.80;99.90;;;;;;5058661;28;20271;-73
2022/04/03 02:57:17;;;;;;;9.47;6.80;;;4.90;99.90;;;;;;5045988;28;20450;-70
2022/04/03 02:59:44;;;;;;;10.23;7.73;;;4.90;99.90;;;;;;5061404;28;20176;-70
2022/04/03 03:02:10;;;;;;;8.47;6.93;;;4.90;99.90;;;;;;5044227;28;20693;-71
2022/04/03 03:04:37;;;;;;;12.83;8.60;;;4.90;99.90;;;;;;5042094;28;20445;-71
2022/04/03 03:07:07;;;;;;;10.87;7.23;;;4.90;99.90;;;;;;5043989;28;20477;-71
2022/04/03 03:09:34;;;;;;;10.33;8.30;;;4.80;99.90;;;;;;5042574;28;20431;-69
2022/04/03 03:11:59;;;;;;;9.00;6.93;;;4.90;99.90;;;;;;5045274;28;20804;-70
2022/04/03 03:14:29;;;;;;;12.43;8.43;;;4.70;99.90;;;;;;5043856;28;20439;-70
2022/04/03 03:16:55;;;;;;;9.50;8.03;;;4.80;99.90;;;;;;5043135;28;20610;-71
2022/04/03 03:19:21;;;;;;;11.27;8.50;;;4.90;99.90;;;;;;5042586;28;20477;-71
2022/04/03 03:21:47;;;;;;;11.10;7.83;;;4.90;99.90;;;;;;5044041;28;20504;-71
2022/04/03 03:24:12;;;;;;;11.53;8.10;;;4.90;99.90;;;;;;5043457;28;20188;-71
2022/04/03 03:26:44;;;;;;;11.20;8.43;;;4.90;99.90;;;;;;5045090;28;20227;-70
2022/04/03 03:29:12;;;;;;;8.50;7.57;;;4.90;99.90;;;;;;5043117;28;20187;-71
2022/04/03 03:31:38;;;;;;;10.27;7.77;;;5.00;99.90;;;;;;5044204;28;20473;-71
2022/04/03 03:34:03;;;;;;;10.53;8.23;;;5.00;99.90;;;;;;5043362;28;20813;-71
2022/04/03 03:36:29;;;;;;;10.13;7.53;;;4.90;99.90;;;;;;5043714;28;20728;-73
2022/04/03 03:38:55;;;;;;;11.90;8.17;;;4.80;99.90;;;;;;5045809;28;20557;-73
2022/04/03 03:41:21;;;;;;;12.10;8.60;;;4.70;99.90;;;;;;5045577;28;20450;-73
2022/04/03 03:43:47;;;;;;;10.50;7.23;;;4.70;99.90;;;;;;5046658;28;20430;-72
2022/04/03 03:46:13;;;;;;;8.63;7.60;;;4.70;99.90;;;;;;5058194;28;20673;-71
2022/04/03 03:48:38;;;;;;;11.20;7.33;;;4.70;99.90;;;;;;5041965;28;20474;-71
2022/04/03 03:51:04;;;;;;;10.40;7.20;;;4.70;99.90;;;;;;5043851;28;20553;-73
2022/04/03 03:53:32;;;;;;;8.90;7.20;;;4.80;99.90;;;;;;5045451;28;20188;-69
2022/04/03 03:56:00;;;;;;;10.60;7.30;;;4.70;99.90;;;;;;5043813;28;20463;-70
2022/04/03 03:58:26;;;;;;;9.10;7.23;;;4.70;99.90;;;;;;5044509;28;20521;-73
2022/04/03 04:00:52;;;;;;;9.60;7.13;;;4.70;99.90;;;;;;5044814;28;20652;-72
2022/04/03 04:03:17;;;;;;;12.73;8.20;;;4.80;99.90;;;;;;5044115;28;20199;-73
2022/04/03 04:05:43;;;;;;;12.90;7.80;;;4.80;99.90;;;;;;5041344;28;20230;-73
2022/04/03 04:08:09;;;;;;;8.37;7.50;;;4.80;99.90;;;;;;5045351;28;20208;-73
2022/04/03 04:10:37;;;;;;;10.33;8.30;;;4.70;99.90;;;;;;5041756;28;21005;-72
2022/04/03 04:13:03;;;;;;;7.90;6.67;;;4.80;99.90;;;;;;5043342;28;20671;-71
2022/04/03 04:15:30;;;;;;;13.53;8.37;;;4.90;99.90;;;;;;5042750;28;20461;-71
2022/04/03 04:17:58;;;;;;;9.60;7.47;;;4.90;99.90;;;;;;5040980;28;20226;-72
2022/04/03 04:20:25;;;;;;;9.10;7.00;;;4.90;99.90;;;;;;5045779;28;20438;-71
2022/04/03 04:22:52;;;;;;;12.80;7.43;;;4.90;99.90;;;;;;5044773;28;20511;-71
2022/04/03 04:25:19;;;;;;;14.70;8.53;;;4.90;99.90;;;;;;5045802;28;20476;-72
2022/04/03 04:27:45;;;;;;;10.67;7.70;;;4.70;99.90;;;;;;5044003;28;20990;-71
2022/04/03 04:30:15;;;;;;;8.93;7.20;;;4.80;99.90;;;;;;5042181;28;20530;-72
2022/04/03 04:32:41;;;;;;;8.27;6.63;;;4.70;99.90;;;;;;5043883;28;20512;-72
2022/04/03 04:35:07;;;;;;;10.10;7.93;;;4.80;99.90;;;;;;5043569;28;20962;-72
2022/04/03 04:37:34;;;;;;;10.10;7.93;;;4.70;99.90;;;;;;5043665;28;20434;-71
2022/04/03 04:40:00;;;;;;;9.30;7.87;;;4.80;99.90;;;;;;5042727;28;20528;-72
2022/04/03 04:42:25;;;;;;;8.60;6.87;;;4.90;99.90;;;;;;5043575;28;20517;-72
2022/04/03 04:44:51;;;;;;;8.93;7.63;;;5.00;99.90;;;;;;5043907;28;20180;-72
2022/04/03 04:47:16;;;;;;;10.77;7.70;;;4.80;99.90;;;;;;5043331;28;20599;-73
2022/04/03 04:49:42;;;;;;;8.70;7.70;;;4.70;99.90;;;;;;5041681;28;20182;-72
2022/04/03 04:52:08;;;;;;;10.30;7.13;;;4.70;99.90;;;;;;5041812;28;20167;-73
2022/04/03 04:54:35;;;;;;;8.87;7.60;;;4.60;99.90;;;;;;5042283;28;20567;-73
2022/04/03 04:57:01;;;;;;;8.10;6.93;;;4.60;99.90;;;;;;5041581;28;20885;-73
2022/04/03 04:59:26;;;;;;;13.07;8.13;;;4.50;99.90;;;;;;5043692;28;20426;-73
2022/04/03 05:01:56;;;;;;;7.33;6.57;;;4.40;99.90;;;;;;5042733;28;20444;-71
2022/04/03 05:04:25;;;;;;;10.70;7.30;;;4.60;99.90;;;;;;5041235;28;20183;-70
2022/04/03 05:06:52;;;;;;;14.07;8.00;;;4.60;99.90;;;;;;5043103;28;20469;-71
2022/04/03 05:09:20;;;;;;;8.10;6.90;;;4.50;99.90;;;;;;5042260;28;20517;-71
2022/04/03 05:11:47;;;;;;;10.07;7.80;;;4.60;99.90;;;;;;5043425;28;20434;-71
2022/04/03 05:14:13;;;;;;;10.30;8.20;;;4.60;99.90;;;;;;5041690;28;20526;-71
2022/04/03 05:16:39;;;;;;;7.33;6.53;;;4.70;99.90;;;;;;5045466;28;20818;-71
2022/04/03 05:19:05;;;;;;;9.80;7.30;;;4.80;99.90;;;;;;5042568;28;20430;-72
2022/04/03 05:21:31;;;;;;;8.73;7.30;;;4.70;99.90;;;;;;5043871;28;20938;-72
2022/04/03 05:23:56;;;;;;;13.33;7.80;;;4.80;99.90;;;;;;5041240;28;20223;-73
2022/04/03 05:26:22;;;;;;;8.17;6.60;;;4.80;99.90;;;;;;5043144;28;20273;-72
2022/04/03 05:28:48;;;;;;;11.70;7.97;;;4.90;99.90;;;;;;5042411;28;20176;-72
2022/04/03 05:31:14;;;;;;;9.97;8.57;;;4.90;99.90;;;;;;5043160;28;20294;-70
2022/04/03 05:33:40;;;;;;;10.43;6.90;;;4.90;99.90;;;;;;5042153;28;20525;-72
2022/04/03 05:36:08;;;;;;;11.93;8.13;;;4.90;99.90;;;;;;5043259;28;20203;-72
2022/04/03 05:38:34;;;;;;;10.77;8.03;;;4.70;99.90;;;;;;5042776;28;20438;-72
2022/04/03 05:41:00;;;;;;;9.63;7.13;;;4.60;99.90;;;;;;5043769;28;20438;-72
2022/04/03 05:43:25;;;;;;;11.37;8.00;;;4.60;99.90;;;;;;5042381;28;20864;-73
2022/04/03 05:45:54;;;;;;;9.50;8.50;;;4.80;99.90;;;;;;5043657;28;20210;-73
2022/04/03 05:48:20;;;;;;;10.60;7.93;;;4.80;99.90;;;;;;5043764;28;20199;-72
2022/04/03 05:50:46;;;;;;;10.80;8.00;;;4.80;99.90;;;;;;5043288;28;20452;-72
2022/04/03 05:53:12;;;;;;;9.67;7.87;;;4.70;99.90;;;;;;5047157;28;20434;-72
2022/04/03 05:55:37;;;;;;;14.83;7.90;;;4.60;99.90;;;;;;5045126;28;20658;-72
2022/04/03 05:58:03;;;;;;;9.83;7.13;;;4.60;99.90;;;;;;5046444;28;20445;-73
2022/04/03 06:00:29;;;;;;;9.23;7.80;;;4.60;99.90;;;;;;5044729;28;20269;-72
2022/04/03 06:02:56;;;;;;;10.40;7.07;;;4.60;99.90;;;;;;5045611;28;20187;-73
2022/04/03 06:05:29;;;;;;;8.90;7.40;;;4.70;99.90;;;;;;5045865;28;20929;-72
2022/04/03 06:07:56;;;;;;;9.60;7.47;;;4.70;99.90;;;;;;5046094;28;21235;-72
2022/04/03 06:10:23;;;;;;;9.70;7.70;;;4.70;99.90;;;;;;5046015;28;20449;-74
2022/04/03 06:12:55;;;;;;;10.27;8.00;;;4.70;99.90;;;;;;5046856;28;20439;-73
2022/04/03 06:15:21;;;;;;;9.50;7.43;;;4.70;99.90;;;;;;5046058;28;20465;-73
2022/04/03 06:17:51;;;;;;;9.43;7.10;;;4.70;99.90;;;;;;5046090;28;20461;-73
2022/04/03 06:20:18;;;;;;;13.23;7.63;;;4.70;99.90;;;;;;5045219;28;20935;-72
2022/04/03 06:22:44;;;;;;;9.50;8.33;;;4.80;99.90;;;;;;5047057;28;20923;-72
2022/04/03 06:25:10;;;;;;;10.90;8.63;;;4.80;99.90;;;;;;5046050;28;20860;-71
2022/04/03 06:27:37;;;;;;;11.00;8.20;;;4.90;99.90;;;;;;5058938;28;20478;-71
2022/04/03 06:30:04;;;;;;;8.47;7.57;;;4.90;99.90;;;;;;5043484;28;20184;-71
2022/04/03 06:32:29;;;;;;;8.93;7.83;;;4.90;99.90;;;;;;5045906;28;20894;-71
2022/04/03 06:34:56;;;;;;;10.13;6.63;;;4.90;99.90;;;;;;5045756;28;20414;-72
2022/04/03 06:37:21;;;;;;;11.90;8.03;;;5.00;99.90;;;;;;5044830;28;20215;-73
2022/04/03 06:39:47;;;;;;;9.40;6.97;;;5.10;99.90;;;;;;5042721;28;20438;-73
2022/04/03 06:42:13;;;;;;;9.47;7.57;;;5.00;99.90;;;;;;5043845;28;20553;-72
2022/04/03 06:44:41;;;;;;;13.40;9.13;;;5.10;99.90;;;;;;5045320;28;20183;-71
2022/04/03 06:47:07;;;;;;;13.03;8.83;;;5.10;99.90;;;;;;5043583;28;20215;-71
2022/04/03 06:49:42;;;;;;;11.93;9.30;;;5.10;99.90;;;;;;5045243;28;20469;-71
2022/04/03 06:52:11;;;;;;;12.60;8.90;;;5.20;99.90;;;;;;5044333;28;20257;-72
2022/04/03 06:54:37;;;;;;;7.23;5.87;;;5.20;99.90;;;;;;5045662;28;20430;-72
2022/04/03 06:57:03;;;;;;;9.23;7.30;;;5.10;99.90;;;;;;5042663;28;20603;-72
2022/04/03 06:59:29;;;;;;;9.13;7.30;;;5.30;99.90;;;;;;5046058;28;20617;-72
2022/04/03 07:01:55;;;;;;;10.40;7.70;;;5.10;99.90;;;;;;5043402;28;20499;-72
2022/04/03 07:04:21;;;;;;;10.33;7.53;;;5.10;99.90;;;;;;5044430;28;20523;-73
2022/04/03 07:06:46;;;;;;;8.50;6.30;;;5.10;99.90;;;;;;5042131;28;20470;-72
2022/04/03 07:09:12;;;;;;;10.73;8.03;;;5.10;99.90;;;;;;5045488;28;20179;-73
2022/04/03 07:11:38;;;;;;;9.77;6.93;;;4.90;99.90;;;;;;5043348;28;20238;-73
2022/04/03 07:14:03;;;;;;;7.80;6.83;;;4.90;99.90;;;;;;5045562;28;20176;-72
2022/04/03 07:16:29;;;;;;;9.50;7.03;;;4.90;99.90;;;;;;5044802;28;20253;-72
2022/04/03 07:18:55;;;;;;;8.63;6.17;;;4.90;99.90;;;;;;5042406;28;20188;-72
2022/04/03 07:21:20;;;;;;;12.27;7.00;;;4.90;99.90;;;;;;5040708;28;20180;-72
2022/04/03 07:23:46;;;;;;;10.30;7.10;;;4.90;99.90;;;;;;5042115;28;20552;-73
2022/04/03 07:26:12;;;;;;;9.30;7.00;;;4.70;99.90;;;;;;5042647;28;20203;-73
2022/04/03 07:28:37;;;;;;;10.03;8.00;;;4.90;99.90;;;;;;5044046;28;20233;-73
2022/04/03 07:31:03;;;;;;;8.60;6.87;;;5.00;99.90;;;;;;5045392;28;20624;-73
2022/04/03 07:33:29;;;;;;;9.43;7.10;;;5.00;99.90;;;;;;5044574;28;21075;-73
2022/04/03 07:36:00;;;;;;;10.27;8.70;;;5.00;99.90;;;;;;5044139;28;20215;-71
2022/04/03 07:38:27;;;;;;;9.90;6.80;;;5.10;99.90;;;;;;5045227;28;20192;-73
2022/04/03 07:40:53;;;;;;;7.77;6.73;;;5.20;99.90;;;;;;5045516;28;20442;-74
2022/04/03 07:43:22;;;;;;;7.60;6.53;;;5.10;99.90;;;;;;5043835;28;20442;-75
2022/04/03 07:45:49;;;;;;;6.27;5.67;;;5.00;99.90;;;;;;5058476;28;20699;-74
2022/04/03 07:48:16;;;;;;;8.07;6.40;;;5.00;99.90;;;;;;5044046;28;20477;-76
2022/04/03 07:50:42;;;;;;;5.70;5.00;;;5.00;99.90;;;;;;5058789;28;20882;-74
2022/04/03 07:53:08;;;;;;;8.00;6.33;;;5.30;99.90;;;;;;5048102;28;20796;-74
2022/04/03 07:55:34;;;;;;;6.20;5.60;;;5.40;99.90;;;;;;5046175;28;20519;-74
2022/04/03 07:58:00;;;;;;;7.40;6.20;;;5.60;99.90;;;;;;5044796;28;20194;-75
2022/04/03 08:00:26;;;;;;;7.33;6.00;;;5.40;99.90;;;;;;5047583;28;20448;-75
2022/04/03 08:02:51;;;;;;;10.80;5.70;;;5.60;99.90;;;;;;5042676;28;20967;-74
2022/04/03 08:05:17;;;;;;;8.10;5.77;;;5.40;99.90;;;;;;5046401;28;20212;-73
2022/04/03 08:07:45;;;;;;;7.03;6.10;;;5.50;99.90;;;;;;5041506;28;20203;-72
2022/04/03 08:10:16;;;;;;;9.33;6.90;;;5.60;99.90;;;;;;5045305;28;20199;-72
2022/04/03 08:12:44;;;;;;;12.37;6.80;;;5.60;99.90;;;;;;5034430;28;20441;-75
2022/04/03 08:15:11;;;;;;;7.53;6.80;;;5.60;99.90;;;;;;5043296;28;20461;-75
2022/04/03 08:17:38;;;;;;;7.60;6.40;;;5.70;99.90;;;;;;5043714;28;20496;-76
2022/04/03 08:20:11;;;;;;;7.47;6.57;;;5.70;99.90;;;;;;5042001;28;21035;-74
2022/04/03 08:22:37;;;;;;;6.50;5.63;;;5.90;99.90;;;;;;5054391;28;20442;-75
2022/04/03 08:25:06;;;;;;;6.87;6.00;;;6.00;99.90;;;;;;5040462;28;21424;-75
2022/04/03 08:27:49;;;;;;;7.83;5.30;;;6.00;99.90;;;;;;5046945;28;20483;-74
2022/04/03 08:30:27;;;;;;;6.83;5.17;;;5.80;99.90;;;;;;5061523;28;20519;-74
2022/04/03 08:32:53;;;;;;;6.80;5.60;;;5.90;99.90;;;;;;5044882;28;20434;-76
2022/04/03 08:35:21;;;;;;;6.00;5.13;;;5.90;99.90;;;;;;5061669;28;20879;-76
2022/04/03 08:37:48;;;;;;;7.30;5.73;;;5.80;99.90;;;;;;5043630;28;20940;-75
2022/04/03 08:40:14;;;;;;;6.60;5.70;;;5.80;99.90;;;;;;5047951;28;20437;-75
2022/04/03 08:42:40;;;;;;;9.03;5.70;;;5.70;99.90;;;;;;5047332;28;20924;-71
2022/04/03 08:45:11;;;;;;;9.97;6.27;;;5.80;99.90;;;;;;5047367;28;20831;-71
2022/04/03 08:47:47;;;;;;;8.40;6.67;;;5.80;99.90;;;;;;5043574;28;21499;-72
2022/04/03 08:50:16;;;;;;;5.30;4.50;;;6.00;99.90;;;;;;5052767;28;21194;-71
2022/04/03 08:52:46;;;;;;;6.50;5.77;;;6.10;99.90;;;;;;5034503;28;20500;-71
2022/04/03 08:55:12;;;;;;;8.67;5.87;;;6.10;99.90;;;;;;5037959;28;20994;-72
2022/04/03 08:57:38;;;;;;;6.73;5.03;;;6.20;99.90;;;;;;5053861;28;21003;-72
2022/04/03 09:00:07;;;;;;;6.77;5.73;;;6.20;99.90;;;;;;5051173;28;21114;-72
2022/04/03 09:02:33;;;;;;;7.27;6.00;;;6.30;99.90;;;;;;5040005;28;20441;-73
2022/04/03 09:04:59;;;;;;;6.70;5.40;;;6.40;99.90;;;;;;5052746;28;20442;-71
2022/04/03 09:07:25;;;;;;;6.33;5.73;;;6.50;99.90;;;;;;5031354;28;20262;-70
2022/04/03 09:10:10;;;;;;;7.50;6.20;;;6.40;99.90;;;;;;5037643;28;20438;-71
2022/04/03 09:12:50;;;;;;;5.40;4.67;;;6.60;99.90;;;;;;5040261;28;20952;-71
2022/04/03 09:15:18;;;;;;;6.80;4.40;;;6.60;99.90;;;;;;5035547;28;20460;-72
2022/04/03 09:17:49;;;;;;;5.10;4.60;;;6.50;99.90;;;;;;5040886;28;20438;-72
2022/04/03 09:20:27;;;;;;;5.07;4.57;;;6.50;99.90;;;;;;5040514;28;20476;-72
2022/04/03 09:22:56;;;;;;;6.03;5.43;;;6.60;99.90;;;;;;5037235;28;20798;-71
2022/04/03 09:25:41;;;;;;;6.13;5.30;;;6.70;99.90;;;;;;5038975;28;20494;-72
2022/04/03 09:28:09;;;;;;;10.20;6.30;;;6.60;99.90;;;;;;5043674;28;20581;-72
2022/04/03 09:30:46;;;;;;;6.63;5.20;;;6.60;99.90;;;;;;5045004;28;20503;-72
2022/04/03 09:33:19;;;;;;;5.90;5.40;;;6.60;99.90;;;;;;5062653;28;20805;-72
2022/04/03 09:36:04;;;;;;;6.43;5.80;;;6.40;99.90;;;;;;5045285;28;20524;-72
2022/04/03 09:38:31;;;;;;;5.53;4.90;;;6.30;99.90;;;;;;5043528;28;20448;-72
2022/04/03 09:40:59;;;;;;;6.07;5.10;;;6.30;99.90;;;;;;5041902;28;20448;-72
2022/04/03 09:43:27;;;;;;;7.40;5.27;;;6.30;99.90;;;;;;5036092;28;21131;-71
2022/04/03 09:45:56;;;;;;;7.80;5.93;;;6.30;99.90;;;;;;5041570;28;20470;-71
2022/04/03 09:48:25;;;;;;;8.33;6.23;;;6.40;99.90;;;;;;5042838;28;20516;-73
2022/04/03 09:50:59;;;;;;;8.73;4.80;;;6.40;99.90;;;;;;5041036;28;20453;-71
2022/04/03 09:53:29;;;;;;;5.07;4.30;;;6.30;99.90;;;;;;5059644;28;20494;-74
2022/04/03 09:55:55;;;;;;;9.30;5.20;;;6.10;99.90;;;;;;5047366;28;20540;-71
2022/04/03 09:58:22;;;;;;;6.17;5.00;;;6.00;99.90;;;;;;5043220;28;20854;-71
2022/04/03 10:00:48;;;;;;;6.03;5.40;;;5.90;99.90;;;;;;5038209;28;20863;-72
2022/04/03 10:03:16;;;;;;;6.87;5.70;;;5.90;99.90;;;;;;5034742;28;20511;-71
2022/04/03 10:05:45;;;;;;;8.90;5.23;;;5.80;99.90;;;;;;5033257;28;20470;-72
2022/04/03 10:08:12;;;;;;;8.27;6.00;;;5.80;99.90;;;;;;5036334;28;20474;-70
2022/04/03 10:10:38;;;;;;;7.23;5.13;;;5.90;99.90;;;;;;5041867;28;20444;-72
2022/04/03 10:13:05;;;;;;;5.60;4.57;;;5.60;99.90;;;;;;5035868;28;20437;-73
2022/04/03 10:15:34;;;;;;;6.20;4.50;;;5.80;99.90;;;;;;5032899;28;20532;-76
2022/04/03 10:18:01;;;;;;;6.43;5.53;;;5.90;99.90;;;;;;5049072;28;20454;-73
2022/04/03 10:20:28;;;;;;;6.00;4.43;;;5.90;99.90;;;;;;5047503;28;20453;-73
2022/04/03 10:23:11;;;;;;;6.30;5.53;;;5.90;99.90;;;;;;5038988;28;20541;-75
2022/04/03 10:25:41;;;;;;;7.50;6.10;;;6.10;99.90;;;;;;5055989;28;20480;-75
2022/04/03 10:28:11;;;;;;;7.57;5.43;;;6.30;99.90;;;;;;5041573;28;22723;-73
2022/04/03 10:31:00;;;;;;;9.00;5.03;;;6.20;99.90;;;;;;5055082;28;22876;-72
2022/04/03 10:33:39;;;;;;;9.67;5.30;;;6.20;99.90;;;;;;5042074;28;20430;-72
2022/04/03 10:36:09;;;;;;;7.20;6.10;;;6.30;99.90;;;;;;5038764;28;20450;-72
2022/04/03 10:39:05;;;;;;;5.03;4.50;;;6.30;99.90;;;;;;5034405;28;20492;-72
2022/04/03 10:41:40;;;;;;;13.80;5.50;;;6.10;99.90;;;;;;5042182;28;21182;-74
2022/04/03 10:44:24;;;;;;;6.00;5.40;;;6.30;99.90;;;;;;5037482;28;20982;-74
2022/04/03 10:47:02;;;;;;;6.50;5.90;;;6.40;99.90;;;;;;5049953;28;22909;-74
2022/04/03 10:49:37;;;;;;;7.80;6.20;;;6.40;99.90;;;;;;5037386;28;20506;-73
2022/04/03 10:52:09;;;;;;;9.33;5.93;;;6.50;99.90;;;;;;5035523;28;20490;-74
2022/04/03 10:54:52;;;;;;;6.87;5.80;;;6.50;99.90;;;;;;5034852;28;21105;-74
2022/04/03 10:57:40;;;;;;;7.23;6.00;;;6.40;99.90;;;;;;5051334;28;20442;-73
2022/04/03 11:00:12;;;;;;;11.60;6.60;;;6.30;99.90;;;;;;5033749;28;20439;-74
2022/04/03 11:02:40;;;;;;;8.50;6.00;;;6.30;99.90;;;;;;5051820;28;20453;-73
2022/04/03 11:05:29;;;;;;;7.67;6.80;;;6.30;99.90;;;;;;5039852;28;20457;-73
2022/04/03 11:08:17;;;;;;;12.50;6.40;;;6.40;99.90;;;;;;5020866;28;20790;-74
2022/04/03 11:10:59;;;;;;;9.57;6.70;;;6.40;99.90;;;;;;5036469;28;20438;-75
2022/04/03 11:13:31;;;;;;;7.83;6.60;;;6.60;99.90;;;;;;5037663;28;20564;-73
2022/04/03 11:16:05;;;;;;;6.47;5.90;;;6.50;99.90;;;;;;5034107;28;20455;-74
2022/04/03 11:18:35;;;;;;;7.17;6.13;;;6.30;99.90;;;;;;5040939;28;20939;-73
2022/04/03 11:21:11;;;;;;;7.33;5.60;;;6.50;99.90;;;;;;5039985;28;20446;-74
2022/04/03 11:23:59;;;;;;;7.90;5.80;;;6.60;99.90;;;;;;5032898;28;20480;-74
2022/04/03 11:26:27;;;;;;;8.47;5.60;;;6.70;99.90;;;;;;5035785;28;20536;-73
2022/04/03 11:28:53;;;;;;;6.40;5.60;;;6.60;99.90;;;;;;5036242;28;20906;-74
2022/04/03 11:31:19;;;;;;;7.10;5.87;;;6.50;99.90;;;;;;5033520;28;20452;-73
2022/04/03 11:33:46;;;;;;;10.87;7.57;;;6.40;99.90;;;;;;5034820;28;20466;-74
2022/04/03 11:36:15;;;;;;;15.97;11.37;;;6.60;99.90;;;;;;5036840;28;20491;-74
2022/04/03 11:38:49;;;;;;;10.60;9.27;;;6.50;99.90;;;;;;5038145;28;20939;-73
2022/04/03 11:41:34;;;;;;;7.90;6.43;;;6.60;99.90;;;;;;5030249;28;20541;-74
2022/04/03 11:44:04;;;;;;;8.10;6.20;;;6.60;99.90;;;;;;5036514;28;20593;-74
2022/04/03 11:46:34;;;;;;;6.47;5.77;;;6.80;99.90;;;;;;5036692;28;20458;-74
2022/04/03 11:49:00;;;;;;;6.40;5.30;;;6.80;99.90;;;;;;5036226;28;20500;-73
2022/04/03 11:51:25;;;;;;;8.70;7.80;;;6.70;99.90;;;;;;5037486;28;20438;-73
2022/04/03 11:53:59;;;;;;;9.50;8.50;;;6.90;99.90;;;;;;5037527;28;21231;-73
2022/04/03 11:56:26;;;;;;;5.93;5.40;;;7.00;99.90;;;;;;5039974;28;20207;-74
2022/04/03 11:58:57;;;;;;;7.07;5.47;;;6.70;99.90;;;;;;5039047;28;20449;-74
2022/04/03 12:01:26;;;;;;;6.80;6.00;;;6.70;99.90;;;;;;5041763;28;20434;-73
2022/04/03 12:04:23;;;;;;;7.80;5.87;;;6.90;99.90;;;;;;5040863;28;20454;-74
2022/04/03 12:06:50;;;;;;;10.53;6.53;;;7.10;99.90;;;;;;5025255;28;20466;-74
2022/04/03 12:09:24;;;;;;;10.90;7.50;;;7.20;99.90;;;;;;5038556;28;20426;-74
2022/04/03 12:11:53;;;;;;;9.03;6.70;;;7.00;99.90;;;;;;5036433;28;20616;-74
2022/04/03 12:14:32;;;;;;;6.23;5.53;;;6.80;99.90;;;;;;5039777;28;20649;-74
2022/04/03 12:17:06;;;;;;;6.83;5.30;;;6.90;99.90;;;;;;5038001;28;20531;-73
2022/04/03 12:19:40;;;;;;;6.20;5.60;;;6.80;99.90;;;;;;5051726;28;20553;-74
2022/04/03 12:22:08;;;;;;;8.47;6.30;;;6.90;99.90;;;;;;5037953;28;21085;-74
2022/04/03 12:24:35;;;;;;;7.90;5.47;;;6.90;99.90;;;;;;5035909;28;20449;-73
2022/04/03 12:27:12;;;;;;;8.10;5.90;;;6.80;99.90;;;;;;5034769;28;20481;-74
2022/04/03 12:29:41;;;;;;;19.17;7.23;;;6.90;99.90;;;;;;5041167;28;20502;-73
2022/04/03 12:32:10;;;;;;;7.50;5.80;;;6.70;99.90;;;;;;5035300;28;21414;-73
2022/04/03 12:34:39;;;;;;;7.37;5.50;;;6.60;99.90;;;;;;5042390;28;20480;-73
2022/04/03 12:37:06;;;;;;;7.40;5.80;;;6.90;99.90;;;;;;5037558;28;21503;-73
2022/04/03 12:39:50;;;;;;;7.53;6.30;;;7.00;99.90;;;;;;5037512;28;20434;-74
2022/04/03 12:42:24;;;;;;;7.83;6.53;;;6.90;99.90;;;;;;5036832;28;21621;-74
2022/04/03 12:44:56;;;;;;;6.77;5.67;;;7.00;99.90;;;;;;5037293;28;20491;-74
2022/04/03 12:47:30;;;;;;;6.03;5.43;;;7.20;99.90;;;;;;5034936;28;20458;-74
2022/04/03 12:50:05;;;;;;;6.50;5.50;;;7.00;99.90;;;;;;5037292;28;20434;-74
2022/04/03 12:52:40;;;;;;;5.57;5.07;;;7.10;99.90;;;;;;5038905;28;20437;-74
2022/04/03 12:55:23;;;;;;;5.90;5.30;;;7.40;99.90;;;;;;5050312;28;20454;-74
2022/04/03 13:00:53;;;;;;;8.00;5.93;;;7.80;99.90;;;;;;5039227;28;20460;-74
2022/04/03 13:03:36;;;;;;;10.43;5.20;;;7.80;99.90;;;;;;5037465;28;20434;-74